Time;durP1;ratioP1;P1;durP2;ratioP2;P2;SDS_P1;SDS_P2;PMS_P1;PMS_P2;Temp;Humidity;BMP_temperature;BMP_pressure;BME280_temperature;BME280_humidity;BME280_pressure;Samples;Min_cycle;Max_cycle;Signal;HPM_P1;HPM_P2
2023/01/02 00:02:08;;;;;;;18.70;10.73;;;;;;;3.27;76.52;96176.50;4951681;28;20360;-69
2023/01/02 00:04:34;;;;;;;13.88;9.27;;;;;;;3.36;76.57;96192.44;4964969;28;20153;-69
2023/01/02 00:07:01;;;;;;;15.32;9.25;;;;;;;3.39;76.52;96172.69;4950184;28;20501;-69
2023/01/02 00:09:26;;;;;;;13.35;8.55;;;;;;;3.46;76.61;96180.13;4985081;28;20432;-69
2023/01/02 00:11:51;;;;;;;12.63;8.85;;;;;;;3.44;76.25;96158.78;4963844;28;20172;-69
2023/01/02 00:14:17;;;;;;;15.10;8.90;;;;;;;3.61;75.84;96178.78;4966304;28;20170;-69
2023/01/02 00:16:42;;;;;;;12.80;8.65;;;;;;;3.57;76.20;96183.19;4990297;28;20031;-69
2023/01/02 00:19:08;;;;;;;14.18;9.02;;;;;;;3.53;76.36;96173.06;4985940;28;20035;-69
2023/01/02 00:21:33;;;;;;;13.38;8.82;;;;;;;3.63;76.15;96173.59;4966519;28;20038;-69
2023/01/02 00:23:59;;;;;;;13.70;8.48;;;;;;;3.71;75.59;96172.44;4964376;28;20105;-69
2023/01/02 00:26:24;;;;;;;14.13;8.90;;;;;;;3.81;75.23;96172.94;4964408;28;20027;-69
2023/01/02 00:28:50;;;;;;;13.50;8.70;;;;;;;3.72;75.55;96170.69;4963486;28;20038;-69
2023/01/02 00:31:15;;;;;;;14.38;8.70;;;;;;;3.76;75.20;96169.69;4946405;28;20027;-70
2023/01/02 00:33:42;;;;;;;14.18;9.30;;;;;;;3.86;75.26;96165.09;4963488;28;20027;-69
2023/01/02 00:36:09;;;;;;;15.60;9.30;;;;;;;3.86;74.88;96162.50;4949117;28;20497;-68
2023/01/02 00:38:35;;;;;;;14.88;9.15;;;;;;;3.89;74.49;96155.53;4963335;28;20037;-69
2023/01/02 00:41:00;;;;;;;13.27;9.00;;;;;;;3.96;74.11;96153.59;4949957;28;20059;-69
2023/01/02 00:43:26;;;;;;;14.70;8.77;;;;;;;3.97;74.21;96153.53;4964596;28;20033;-70
2023/01/02 00:45:52;;;;;;;12.23;8.18;;;;;;;3.85;74.38;96148.00;4970179;28;20042;-69
2023/01/02 00:48:17;;;;;;;16.48;9.18;;;;;;;3.86;74.33;96162.50;4964640;28;20023;-69
2023/01/02 00:50:43;;;;;;;13.20;8.65;;;;;;;3.76;74.81;96150.00;4964454;28;20050;-69
2023/01/02 00:53:09;;;;;;;25.67;16.10;;;;;;;3.87;75.60;96166.75;4990174;28;20117;-69
2023/01/02 00:55:34;;;;;;;24.90;14.30;;;;;;;4.00;75.13;96173.97;4963346;28;20399;-69
2023/01/02 00:57:59;;;;;;;28.77;17.95;;;;;;;4.03;75.30;96176.44;4964252;28;21289;-69
2023/01/02 01:00:25;;;;;;;23.67;14.80;;;;;;;4.16;74.65;96173.44;4945731;28;20445;-69
2023/01/02 01:02:56;;;;;;;22.88;14.75;;;;;;;4.25;73.45;96180.81;4962725;28;20049;-69
2023/01/02 01:05:23;;;;;;;21.83;13.15;;;;;;;4.23;72.77;96174.88;4963777;28;21399;-69
2023/01/02 01:07:49;;;;;;;12.93;8.85;;;;;;;4.14;72.96;96172.66;4965825;28;20085;-69
2023/01/02 01:10:14;;;;;;;12.80;8.77;;;;;;;4.13;72.04;96169.25;4983220;28;20035;-69
2023/01/02 01:12:39;;;;;;;14.38;9.20;;;;;;;3.77;72.15;96130.25;4980017;28;20047;-69
2023/01/02 01:15:06;;;;;;;12.05;8.68;;;;;;;3.91;72.32;96169.16;4985964;28;20038;-69
2023/01/02 01:17:31;;;;;;;11.95;8.50;;;;;;;3.78;72.35;96152.50;4963186;28;20240;-69
2023/01/02 01:19:57;;;;;;;13.30;8.20;;;;;;;3.88;72.10;96166.72;4962693;28;20466;-69
2023/01/02 01:22:22;;;;;;;9.10;7.10;;;;;;;3.89;71.83;96165.81;4964624;28;20042;-69
2023/01/02 01:24:48;;;;;;;11.07;6.95;;;;;;;3.81;72.02;96163.50;4963135;28;20042;-69
2023/01/02 01:27:13;;;;;;;12.45;7.32;;;;;;;3.74;72.54;96161.22;4971928;28;20078;-70
2023/01/02 01:29:39;;;;;;;10.88;7.10;;;;;;;3.65;72.73;96158.94;4960607;28;20037;-69
2023/01/02 01:32:04;;;;;;;9.80;6.72;;;;;;;3.59;72.95;96157.41;4964176;28;20127;-69
2023/01/02 01:34:30;;;;;;;11.57;7.60;;;;;;;3.60;73.61;96153.97;4946043;28;20042;-69
2023/01/02 01:36:55;;;;;;;10.77;7.50;;;;;;;3.31;72.62;96134.38;4965922;28;20057;-69
2023/01/02 01:39:20;;;;;;;11.45;7.53;;;;;;;3.38;72.52;96156.44;4965174;28;20023;-69
2023/01/02 01:41:46;;;;;;;20.13;12.77;;;;;;;3.26;73.39;96159.38;4968110;28;20482;-69
2023/01/02 01:44:42;;;;;;;16.33;10.10;;;;;;;3.31;74.27;96157.50;4975066;28;20471;-69
2023/01/02 01:47:39;;;;;;;14.70;9.15;;;;;;;3.32;74.25;96159.22;4964918;28;20042;-69
2023/01/02 01:50:16;;;;;;;11.88;8.15;;;;;;;3.32;73.23;96151.50;4963295;28;20409;-69
2023/01/02 01:52:50;;;;;;;10.60;7.40;;;;;;;3.23;73.22;96154.34;4948365;28;20059;-69
2023/01/02 01:55:19;;;;;;;11.40;8.10;;;;;;;3.06;72.89;96137.75;4968210;28;20030;-69
2023/01/02 01:57:56;;;;;;;16.95;10.88;;;;;;;3.11;73.60;96151.28;4964157;28;20114;-69
2023/01/02 02:00:21;;;;;;;15.32;9.77;;;;;;;3.14;73.62;96146.06;4966165;28;20114;-69
2023/01/02 02:02:48;;;;;;;16.15;10.02;;;;;;;3.13;73.71;96140.97;4994703;28;20054;-69
2023/01/02 02:05:16;;;;;;;13.20;8.77;;;;;;;3.20;73.42;96137.31;4967862;28;20042;-69
2023/01/02 02:07:45;;;;;;;12.93;8.45;;;;;;;3.09;73.54;96135.13;4965996;28;20058;-69
2023/01/02 02:10:10;;;;;;;12.48;8.25;;;;;;;3.01;73.71;96144.78;4948557;28;20031;-69
2023/01/02 02:12:36;;;;;;;13.60;8.65;;;;;;;2.95;74.14;96139.81;4960819;28;20127;-70
2023/01/02 02:15:01;;;;;;;15.55;8.85;;;;;;;3.02;73.63;96145.63;4996750;28;20042;-69
2023/01/02 02:17:54;;;;;;;12.15;8.15;;;;;;;3.03;73.75;96142.16;4962591;28;20512;-69
2023/01/02 02:20:25;;;;;;;17.58;9.60;;;;;;;2.94;74.41;96142.47;4964279;28;20175;-69
2023/01/02 02:23:05;;;;;;;12.50;7.87;;;;;;;2.90;74.36;96149.44;4963993;28;20413;-69
2023/01/02 02:26:10;;;;;;;17.02;9.38;;;;;;;2.84;73.53;96157.28;4947479;28;20023;-69
2023/01/02 02:29:13;;;;;;;13.98;9.25;;;;;;;2.88;73.83;96158.91;4967085;28;20115;-69
2023/01/02 02:31:47;;;;;;;18.52;11.45;;;;;;;2.84;74.24;96154.72;4963443;28;20043;-69
2023/01/02 02:34:32;;;;;;;16.38;11.07;;;;;;;2.88;73.96;96156.31;4965290;28;20485;-69
2023/01/02 02:37:01;;;;;;;11.15;7.95;;;;;;;2.91;73.43;96153.66;4949602;28;20046;-70
2023/01/02 02:39:51;;;;;;;11.52;7.68;;;;;;;2.89;73.67;96151.13;4948401;28;20035;-69
2023/01/02 02:42:35;;;;;;;11.88;7.97;;;;;;;2.97;73.69;96152.63;4932025;28;20031;-69
2023/01/02 02:45:30;;;;;;;13.98;7.32;;;;;;;2.87;73.96;96136.66;4967186;28;20530;-69
2023/01/02 02:48:06;;;;;;;9.80;6.90;;;;;;;2.85;74.41;96156.44;4962466;28;20039;-69
2023/01/02 02:50:35;;;;;;;11.85;8.20;;;;;;;2.72;74.84;96138.00;4946559;28;20491;-69
2023/01/02 02:53:05;;;;;;;11.20;7.50;;;;;;;2.84;75.14;96139.31;4962703;28;20115;-69
2023/01/02 02:55:44;;;;;;;10.43;7.18;;;;;;;2.89;75.54;96143.44;4947976;28;20089;-69
2023/01/02 02:58:11;;;;;;;10.52;7.25;;;;;;;2.90;75.72;96131.47;4963530;28;20055;-69
2023/01/02 03:00:36;;;;;;;11.77;7.03;;;;;;;2.99;75.83;96120.88;4962039;28;20035;-70
2023/01/02 03:03:13;;;;;;;10.73;7.38;;;;;;;3.01;75.46;96119.13;4963543;28;20038;-69
2023/01/02 03:05:39;;;;;;;10.00;6.88;;;;;;;2.84;75.86;96111.09;4964462;28;20042;-69
2023/01/02 03:08:10;;;;;;;13.15;8.70;;;;;;;2.94;75.88;96117.63;4946799;28;20027;-69
2023/01/02 03:10:46;;;;;;;14.20;9.47;;;;;;;2.97;75.36;96125.22;4977647;28;20466;-69
2023/01/02 03:13:56;;;;;;;14.15;8.68;;;;;;;2.87;76.26;96118.69;4993410;28;20062;-69
2023/01/02 03:16:21;;;;;;;15.98;10.68;;;;;;;2.86;76.16;96117.03;4963494;28;20031;-69
2023/01/02 03:18:56;;;;;;;20.80;13.57;;;;;;;2.83;75.57;96099.16;4962785;28;20504;-69
2023/01/02 03:21:37;;;;;;;29.17;17.60;;;;;;;2.93;75.78;96097.16;4958990;28;20055;-69
2023/01/02 03:24:04;;;;;;;;;;;;;;;2.88;75.56;96100.69;4960820;28;20034;-69
2023/01/02 03:26:31;;;;;;;17.23;10.95;;;;;;;2.94;75.09;96097.09;4965607;28;19926;-69
2023/01/02 03:28:59;;;;;;;18.65;11.10;;;;;;;2.74;74.40;96105.44;4961404;28;20371;-69
2023/01/02 03:31:24;;;;;;;19.13;11.38;;;;;;;2.54;74.59;96079.56;4977509;28;20485;-69
2023/01/02 03:33:55;;;;;;;19.17;11.82;;;;;;;2.71;74.85;96105.53;4962811;28;20035;-69
2023/01/02 03:36:22;;;;;;;11.88;8.30;;;;;;;2.65;73.95;96093.72;4961831;28;20070;-70
2023/01/02 03:39:01;;;;;;;12.45;7.70;;;;;;;2.71;73.47;96104.69;4977018;28;20049;-69
2023/01/02 03:41:29;;;;;;;9.38;6.43;;;;;;;2.71;73.21;96109.81;4964122;28;20031;-69
2023/01/02 03:43:55;;;;;;;10.27;7.10;;;;;;;2.58;72.90;96122.19;4975994;28;20129;-69
2023/01/02 03:46:27;;;;;;;11.02;6.97;;;;;;;2.54;73.07;96134.28;4929552;28;20110;-69
2023/01/02 03:48:58;;;;;;;9.23;6.70;;;;;;;2.45;72.50;96144.78;4992268;28;20032;-70
2023/01/02 03:51:24;;;;;;;14.35;7.82;;;;;;;2.31;72.86;96145.19;4993855;28;20030;-69
2023/01/02 03:53:51;;;;;;;10.80;7.15;;;;;;;2.18;73.11;96131.91;4962590;28;20039;-69
2023/01/02 03:56:38;;;;;;;9.68;6.70;;;;;;;2.20;73.01;96148.09;4960908;28;20027;-69
2023/01/02 03:59:22;;;;;;;10.65;6.97;;;;;;;2.10;73.27;96153.53;4961085;28;20489;-69
2023/01/02 04:02:10;;;;;;;9.25;6.80;;;;;;;2.12;73.51;96165.41;4960642;28;20031;-69
2023/01/02 04:04:40;;;;;;;11.70;7.78;;;;;;;2.07;73.67;96167.28;4960683;28;20043;-69
2023/01/02 04:07:08;;;;;;;9.02;6.38;;;;;;;1.98;73.81;96155.56;4960932;28;20065;-69
2023/01/02 04:09:34;;;;;;;12.63;7.80;;;;;;;1.91;73.31;96159.16;4962681;28;20414;-69
2023/01/02 04:12:02;;;;;;;16.10;9.55;;;;;;;1.86;73.16;96170.41;4944819;28;20030;-69
2023/01/02 04:14:34;;;;;;;14.70;9.50;;;;;;;1.80;73.22;96166.28;4976493;28;20077;-69
2023/01/02 04:17:00;;;;;;;16.60;10.25;;;;;;;1.76;73.16;96172.41;4975038;28;20082;-69
2023/01/02 04:19:28;;;;;;;16.60;10.80;;;;;;;1.72;73.49;96174.19;4976883;28;20030;-69
2023/01/02 04:21:55;;;;;;;17.98;10.93;;;;;;;1.68;73.50;96172.59;4946141;28;20037;-70
2023/01/02 04:24:29;;;;;;;21.10;12.15;;;;;;;1.61;73.69;96165.09;4960881;28;20485;-69
2023/01/02 04:27:10;;;;;;;19.05;11.88;;;;;;;1.68;73.88;96177.72;4959701;28;20031;-69
2023/01/02 04:29:35;;;;;;;18.55;12.27;;;;;;;1.52;73.70;96167.03;4964755;28;20501;-69
2023/01/02 04:32:10;;;;;;;18.80;13.00;;;;;;;1.52;73.82;96186.66;4944669;28;20050;-69
2023/01/02 04:34:35;;;;;;;28.75;16.23;;;;;;;1.49;73.99;96172.22;4975779;28;20043;-69
2023/01/02 04:37:01;;;;;;;24.48;15.75;;;;;;;1.45;73.87;96180.88;4961249;28;20038;-69
2023/01/02 04:39:26;;;;;;;21.60;15.25;;;;;;;1.42;73.60;96173.28;4961510;28;20042;-69
2023/01/02 04:41:52;;;;;;;21.20;14.98;;;;;;;1.35;73.47;96174.28;4972264;28;20042;-69
2023/01/02 04:44:17;;;;;;;22.80;13.40;;;;;;;1.32;73.77;96190.56;4945613;28;20064;-69
2023/01/02 04:46:42;;;;;;;25.70;16.42;;;;;;;1.24;74.16;96189.91;4960815;28;20027;-69
2023/01/02 04:49:08;;;;;;;22.65;14.40;;;;;;;1.25;73.91;96190.75;4960263;28;20030;-69
2023/01/02 04:51:34;;;;;;;26.13;15.77;;;;;;;1.11;73.71;96189.41;4946030;28;20027;-69
2023/01/02 04:53:59;;;;;;;23.77;16.45;;;;;;;1.15;74.29;96187.59;4961664;28;20097;-69
2023/01/02 04:56:25;;;;;;;31.90;18.02;;;;;;;1.18;73.70;96187.50;4961699;28;20497;-69
2023/01/02 04:58:50;;;;;;;24.25;12.85;;;;;;;1.12;74.31;96174.88;4961785;28;20627;-69
2023/01/02 05:01:17;;;;;;;22.33;13.95;;;;;;;1.15;73.98;96186.75;4963598;28;20028;-69
2023/01/02 05:03:44;;;;;;;26.02;15.85;;;;;;;1.09;74.29;96182.63;4960563;28;20504;-69
2023/01/02 05:06:10;;;;;;;27.35;16.27;;;;;;;1.09;74.11;96187.75;4961621;28;20031;-69
2023/01/02 05:08:36;;;;;;;21.10;14.02;;;;;;;1.01;74.07;96164.06;4959463;28;20410;-69
2023/01/02 05:11:05;;;;;;;19.17;11.98;;;;;;;0.95;75.71;96170.16;4993225;28;20022;-69
2023/01/02 05:13:31;;;;;;;9.05;6.18;;;;;;;0.93;77.55;96165.94;4978137;28;20485;-70
2023/01/02 05:15:56;;;;;;;7.63;5.22;;;;;;;1.06;78.76;96169.91;4964840;28;20031;-69
2023/01/02 05:18:22;;;;;;;9.10;6.05;;;;;;;1.16;79.10;96176.47;4996862;28;20027;-69
2023/01/02 05:20:48;;;;;;;47.10;22.73;;;;;;;1.19;78.43;96176.38;4981147;28;20035;-69
2023/01/02 05:25:57;;;;;;;46.40;26.88;;;;;;;0.96;78.67;96171.81;4966214;28;20082;-69
2023/01/02 05:28:23;;;;;;;46.35;27.08;;;;;;;1.10;79.11;96174.91;4996417;28;20477;-69
2023/01/02 05:30:48;;;;;;;40.47;25.05;;;;;;;1.17;78.90;96162.81;4964409;28;20568;-69
2023/01/02 05:33:14;;;;;;;49.50;30.08;;;;;;;1.28;78.01;96162.50;4966263;28;20456;-69
2023/01/02 05:35:39;;;;;;;35.05;22.50;;;;;;;1.31;78.05;96155.63;4962848;28;20519;-69
2023/01/02 05:38:05;;;;;;;24.70;16.15;;;;;;;1.39;77.76;96152.84;4948227;28;20023;-69
2023/01/02 05:40:30;;;;;;;17.60;11.77;;;;;;;1.44;77.78;96153.56;4979524;28;20047;-69
2023/01/02 05:42:57;;;;;;;17.33;10.85;;;;;;;1.36;77.44;96149.53;4964836;28;20027;-69
2023/01/02 05:45:22;;;;;;;19.38;11.73;;;;;;;1.27;77.92;96166.78;4963890;28;20023;-69
2023/01/02 05:47:48;;;;;;;20.63;12.45;;;;;;;1.22;77.47;96167.78;4995437;28;20504;-69
2023/01/02 05:50:13;;;;;;;22.80;12.90;;;;;;;1.11;77.70;96170.59;4966479;28;20026;-69
2023/01/02 05:52:38;;;;;;;23.00;13.07;;;;;;;1.15;77.74;96162.00;4947020;28;20027;-69
2023/01/02 05:55:04;;;;;;;22.77;12.10;;;;;;;1.37;77.70;96179.41;4965364;28;20027;-69
2023/01/02 05:57:29;;;;;;;21.83;13.30;;;;;;;1.38;77.50;96169.09;4964318;28;20051;-69
2023/01/02 05:59:55;;;;;;;25.00;14.40;;;;;;;1.50;76.60;96173.06;4964297;28;20365;-69
2023/01/02 06:02:20;;;;;;;17.73;10.80;;;;;;;1.46;76.50;96174.03;4948134;28;20424;-69
2023/01/02 06:04:46;;;;;;;13.45;8.18;;;;;;;1.50;76.59;96179.00;4964169;28;20402;-69
2023/01/02 06:07:11;;;;;;;14.15;8.55;;;;;;;1.46;76.18;96177.44;4961443;28;20043;-69
2023/01/02 06:09:37;;;;;;;14.38;9.57;;;;;;;1.44;76.43;96173.22;4982550;28;20035;-69
2023/01/02 06:12:02;;;;;;;16.60;10.45;;;;;;;1.50;76.11;96188.44;4979846;28;20030;-69
2023/01/02 06:14:28;;;;;;;18.42;10.68;;;;;;;1.43;76.24;96187.75;4963059;28;20085;-69
2023/01/02 06:16:53;;;;;;;15.38;9.77;;;;;;;1.45;76.32;96188.56;4964317;28;20042;-69
2023/01/02 06:19:19;;;;;;;26.95;15.98;;;;;;;1.54;75.56;96180.63;4962561;28;20039;-69
2023/01/02 06:21:44;;;;;;;38.70;21.20;;;;;;;1.58;74.60;96201.88;4963669;28;20041;-69
2023/01/02 06:24:09;;;;;;;148.85;68.00;;;;;;;1.53;73.78;96183.22;4965626;28;20031;-69
2023/01/02 06:26:35;;;;;;;75.57;46.47;;;;;;;1.55;72.55;96196.84;4962641;28;20071;-69
2023/01/02 06:29:00;;;;;;;66.65;38.75;;;;;;;1.59;72.30;96210.41;4950873;28;20038;-69
2023/01/02 06:31:26;;;;;;;66.80;38.50;;;;;;;1.46;72.67;96204.75;4963727;28;20108;-70
2023/01/02 06:33:53;;;;;;;54.17;31.52;;;;;;;1.47;72.39;96220.06;4962094;28;20031;-69
2023/01/02 06:36:18;;;;;;;56.45;31.77;;;;;;;1.33;72.77;96214.47;4963798;28;20022;-69
2023/01/02 06:38:44;;;;;;;63.28;34.92;;;;;;;1.27;73.70;96224.84;4946829;28;20031;-69
2023/01/02 06:41:10;;;;;;;57.88;32.85;;;;;;;1.26;73.60;96216.34;4946241;28;20038;-69
2023/01/02 06:43:36;;;;;;;69.68;34.42;;;;;;;1.29;73.67;96218.81;4945109;28;20045;-69
2023/01/02 06:46:03;;;;;;;65.18;35.97;;;;;;;1.29;73.82;96225.66;4962801;28;20030;-69
2023/01/02 06:48:30;;;;;;;61.92;34.58;;;;;;;1.18;74.90;96222.53;4963890;28;20019;-69
2023/01/02 06:50:56;;;;;;;64.18;32.35;;;;;;;1.04;74.96;96194.69;4960961;28;20032;-69
2023/01/02 06:53:22;;;;;;;58.83;32.45;;;;;;;1.23;75.47;96215.56;4962011;28;20503;-69
2023/01/02 06:55:54;;;;;;;59.03;28.80;;;;;;;1.17;75.61;96205.47;4963560;28;20031;-69
2023/01/02 06:58:20;;;;;;;55.75;26.20;;;;;;;1.18;76.39;96217.41;4960974;28;20094;-69
2023/01/02 07:00:46;;;;;;;57.63;28.20;;;;;;;1.10;76.61;96215.00;4960560;28;20027;-69
2023/01/02 07:03:11;;;;;;;49.53;25.55;;;;;;;1.03;77.20;96216.88;4964159;28;20027;-70
2023/01/02 07:05:37;;;;;;;59.67;27.67;;;;;;;1.06;77.78;96198.06;4977322;28;20486;-69
2023/01/02 07:08:02;;;;;;;39.60;21.92;;;;;;;1.09;78.90;96200.53;4963576;28;20030;-69
2023/01/02 07:10:28;;;;;;;57.10;26.17;;;;;;;1.07;78.38;96218.47;4961508;28;20045;-69
2023/01/02 07:12:53;;;;;;;45.70;25.52;;;;;;;0.84;79.86;96216.47;4964324;28;20493;-70
2023/01/02 07:15:19;;;;;;;53.90;25.05;;;;;;;0.63;79.82;96209.25;4962165;28;20501;-69
2023/01/02 07:17:45;;;;;;;45.67;23.70;;;;;;;0.58;80.50;96205.94;4962445;28;20437;-69
2023/01/02 07:20:10;;;;;;;34.30;20.33;;;;;;;0.60;81.04;96217.00;4962101;28;20034;-70
2023/01/02 07:22:36;;;;;;;39.47;21.42;;;;;;;0.75;81.23;96216.63;4961261;28;20125;-69
2023/01/02 07:25:01;;;;;;;80.38;30.60;;;;;;;0.80;80.96;96212.25;4963980;28;20086;-69
2023/01/02 07:27:30;;;;;;;80.10;31.48;;;;;;;0.76;81.47;96210.66;4946212;28;20031;-69
2023/01/02 07:29:56;;;;;;;71.22;29.77;;;;;;;0.82;81.29;96213.09;4945821;28;20118;-69
2023/01/02 07:32:21;;;;;;;79.18;36.70;;;;;;;0.77;81.26;96217.47;4962542;28;20062;-68
2023/01/02 07:34:47;;;;;;;64.70;31.55;;;;;;;0.73;80.45;96200.50;4962339;28;20028;-69
2023/01/02 07:37:12;;;;;;;47.00;25.33;;;;;;;0.81;80.00;96205.47;4944296;28;20028;-68
2023/01/02 07:39:37;;;;;;;39.45;21.83;;;;;;;0.96;79.52;96223.00;4946873;28;20034;-69
2023/01/02 07:42:03;;;;;;;34.30;19.02;;;;;;;0.88;79.42;96207.81;4961923;28;20031;-68
2023/01/02 07:44:28;;;;;;;31.08;18.42;;;;;;;1.01;79.56;96215.22;4946200;28;20027;-68
2023/01/02 07:46:54;;;;;;;23.77;15.30;;;;;;;0.99;79.35;96222.09;4944660;28;20039;-69
2023/01/02 07:49:19;;;;;;;25.30;15.75;;;;;;;1.15;79.06;96217.47;4963902;28;20034;-68
2023/01/02 07:51:45;;;;;;;25.30;14.35;;;;;;;1.24;78.49;96217.25;4962797;28;20020;-68
2023/01/02 07:54:10;;;;;;;20.77;13.68;;;;;;;1.27;78.50;96222.28;4962406;28;20046;-68
2023/01/02 07:56:35;;;;;;;22.75;13.60;;;;;;;1.33;78.10;96222.13;4963626;28;20027;-69
2023/01/02 07:59:01;;;;;;;21.77;14.65;;;;;;;1.41;78.47;96227.91;4961158;28;20047;-69
2023/01/02 08:01:26;;;;;;;27.88;16.88;;;;;;;1.39;78.31;96226.28;4961373;28;20026;-68
2023/01/02 08:03:52;;;;;;;59.88;30.98;;;;;;;1.47;78.87;96225.19;4946088;28;20050;-69
2023/01/02 08:06:17;;;;;;;63.35;35.13;;;;;;;1.62;79.43;96230.84;4961550;28;20039;-68
2023/01/02 08:08:43;;;;;;;44.35;25.42;;;;;;;1.84;79.43;96225.97;4945963;28;20045;-68
2023/01/02 08:11:10;;;;;;;54.53;31.67;;;;;;;1.91;79.30;96217.25;4945827;28;20454;-69
2023/01/02 08:13:36;;;;;;;77.90;42.03;;;;;;;2.04;79.46;96225.47;4961391;28;20050;-68
2023/01/02 08:16:08;;;;;;;85.35;45.95;;;;;;;2.19;79.04;96225.06;4961939;28;20413;-69
2023/01/02 08:18:34;;;;;;;74.10;41.60;;;;;;;2.30;78.70;96222.19;4962730;28;20023;-69
2023/01/02 08:20:59;;;;;;;91.43;48.38;;;;;;;2.40;78.73;96219.31;4946145;28;20073;-69
2023/01/02 08:23:24;;;;;;;67.93;38.15;;;;;;;2.47;77.82;96202.84;4962028;28;20058;-69
2023/01/02 08:25:50;;;;;;;34.83;20.63;;;;;;;2.69;77.31;96208.22;4961837;28;20038;-69
2023/01/02 08:28:15;;;;;;;37.45;22.30;;;;;;;2.87;76.75;96211.09;4945876;28;20038;-69
2023/01/02 08:30:41;;;;;;;32.03;20.13;;;;;;;3.06;76.41;96198.53;4961643;28;20043;-69
2023/01/02 08:33:06;;;;;;;27.92;18.27;;;;;;;3.11;76.55;96202.66;4962145;28;20033;-69
2023/01/02 08:35:32;;;;;;;27.27;17.58;;;;;;;3.24;75.94;96203.09;4962057;28;20031;-69
2023/01/02 08:37:57;;;;;;;28.23;16.73;;;;;;;3.36;75.64;96200.13;4961334;28;20031;-69
2023/01/02 08:40:22;;;;;;;64.20;36.53;;;;;;;3.26;76.53;96191.06;4945563;28;20477;-69
2023/01/02 08:42:49;;;;;;;57.22;32.15;;;;;;;3.28;77.15;96191.00;4929117;28;20502;-69
2023/01/02 08:45:14;;;;;;;60.97;33.50;;;;;;;3.43;77.11;96205.09;4964108;28;20046;-69
2023/01/02 08:47:40;;;;;;;54.65;32.47;;;;;;;3.51;77.24;96200.53;4977689;28;20031;-69
2023/01/02 08:50:05;;;;;;;45.90;27.45;;;;;;;3.77;76.64;96197.94;4960923;28;20470;-69
2023/01/02 08:52:31;;;;;;;50.33;29.40;;;;;;;3.78;76.33;96193.63;4961551;28;20493;-68
2023/01/02 08:54:56;;;;;;;51.85;30.58;;;;;;;3.97;76.35;96193.81;4963226;28;20039;-69
2023/01/02 08:57:22;;;;;;;49.97;30.20;;;;;;;4.37;74.93;96197.53;4961221;28;20066;-69
2023/01/02 08:59:47;;;;;;;53.75;31.27;;;;;;;4.53;74.66;96197.84;4961729;28;20019;-69
2023/01/02 09:02:13;;;;;;;50.47;30.15;;;;;;;4.52;74.66;96185.88;4977701;28;20043;-69
2023/01/02 09:04:39;;;;;;;42.30;26.52;;;;;;;4.73;74.01;96190.19;4961161;28;20405;-69
2023/01/02 09:07:05;;;;;;;36.78;23.30;;;;;;;4.90;73.59;96186.97;4976823;28;20066;-69
2023/01/02 09:09:30;;;;;;;40.83;26.88;;;;;;;5.04;73.23;96174.41;4961191;28;20478;-69
2023/01/02 09:11:56;;;;;;;36.05;23.45;;;;;;;5.21;72.92;96168.59;4960835;28;20032;-69
2023/01/02 09:14:21;;;;;;;37.60;22.88;;;;;;;5.41;72.23;96169.53;4962695;28;20031;-69
2023/01/02 09:16:47;;;;;;;44.13;27.20;;;;;;;5.47;71.99;96166.69;4962044;28;20032;-69
2023/01/02 09:19:13;;;;;;;38.47;25.70;;;;;;;5.46;71.17;96123.75;4945784;28;20133;-70
2023/01/02 09:21:38;;;;;;;41.15;26.58;;;;;;;5.93;70.73;96164.75;4961296;28;20039;-69
2023/01/02 09:24:04;;;;;;;36.17;24.40;;;;;;;5.98;70.53;96160.25;4960764;28;20034;-69
2023/01/02 09:26:30;;;;;;;50.90;32.72;;;;;;;5.86;70.66;96145.28;4957336;28;20066;-69
2023/01/02 09:28:55;;;;;;;44.85;30.05;;;;;;;6.07;70.13;96140.94;4955335;28;20397;-69
2023/01/02 09:31:21;;;;;;;54.00;34.53;;;;;;;5.95;70.69;96132.84;4965893;28;20031;-69
2023/01/02 09:33:46;;;;;;;51.72;33.97;;;;;;;6.01;70.83;96142.06;4964585;28;20034;-69
2023/01/02 09:36:13;;;;;;;51.05;33.28;;;;;;;6.35;70.28;96141.41;4965413;28;20027;-70
2023/01/02 09:38:39;;;;;;;50.25;32.40;;;;;;;6.30;70.24;96127.88;4932539;28;20031;-69
2023/01/02 09:41:27;;;;;;;50.03;31.23;;;;;;;6.46;70.18;96117.69;4965537;28;20030;-69
2023/01/02 09:44:13;;;;;;;42.97;29.73;;;;;;;6.74;69.79;96124.97;4973078;28;20038;-69
2023/01/02 09:46:46;;;;;;;47.25;29.60;;;;;;;6.54;70.22;96120.75;4959700;28;20047;-70
2023/01/02 09:49:14;;;;;;;47.35;29.60;;;;;;;6.48;70.42;96079.72;4968974;28;20066;-69
2023/01/02 09:51:39;;;;;;;46.97;29.33;;;;;;;7.00;69.07;96108.25;4951396;28;20078;-69
2023/01/02 09:54:09;;;;;;;44.70;30.70;;;;;;;6.98;69.25;96099.75;4969078;28;20516;-70
2023/01/02 09:56:37;;;;;;;47.42;31.88;;;;;;;7.05;68.96;96095.97;4938224;29;20127;-69
2023/01/02 09:59:40;;;;;;;43.90;29.65;;;;;;;7.06;69.40;96082.13;4960456;28;20312;-70
2023/01/02 10:02:05;;;;;;;49.13;29.90;;;;;;;7.27;69.12;96092.31;4957739;28;20048;-69
2023/01/02 10:04:49;;;;;;;56.55;33.78;;;;;;;7.16;69.57;96088.53;4961801;28;20046;-71
2023/01/02 10:07:38;;;;;;;47.88;31.25;;;;;;;7.21;70.10;96084.84;4964114;28;20030;-70
2023/01/02 10:10:21;;;;;;;48.55;29.88;;;;;;;7.47;69.21;96081.81;4948181;28;20038;-70
2023/01/02 10:13:01;;;;;;;44.13;27.25;;;;;;;7.66;67.55;96070.53;4971851;28;20039;-69
2023/01/02 10:15:27;;;;;;;43.33;28.80;;;;;;;7.72;67.81;96070.22;4979401;28;20033;-69
2023/01/02 10:17:56;;;;;;;43.72;27.90;;;;;;;7.90;67.07;96063.25;4976296;28;20294;-71
2023/01/02 10:20:41;;;;;;;37.60;25.88;;;;;;;8.02;66.58;96060.88;4962480;28;20035;-71
2023/01/02 10:23:12;;;;;;;35.83;24.25;;;;;;;7.99;66.25;96044.66;4974993;28;20031;-69
2023/01/02 10:25:49;;;;;;;34.80;24.17;;;;;;;8.22;66.43;96056.38;4965873;28;20086;-69
2023/01/02 10:28:18;;;;;;;32.30;22.42;;;;;;;8.37;65.32;96054.72;4970752;28;20524;-70
2023/01/02 10:30:47;;;;;;;33.13;22.95;;;;;;;8.43;65.09;96052.63;4954004;28;20104;-70
2023/01/02 10:33:55;;;;;;;36.70;23.00;;;;;;;8.46;64.95;96051.63;4959676;28;20034;-70
2023/01/02 10:36:23;;;;;;;40.03;26.65;;;;;;;8.39;64.90;96038.22;4971639;28;20585;-69
2023/01/02 10:38:49;;;;;;;43.90;26.75;;;;;;;8.48;64.92;96055.00;4970590;28;20027;-69
2023/01/02 10:41:14;;;;;;;41.72;26.35;;;;;;;8.43;64.44;96021.56;4979918;28;20047;-68
2023/01/02 10:43:39;;;;;;;46.78;28.90;;;;;;;8.61;64.59;96024.03;4971253;28;20043;-71
2023/01/02 10:46:05;;;;;;;45.90;29.10;;;;;;;8.74;64.32;96030.22;4989204;28;20105;-68
2023/01/02 10:48:34;;;;;;;43.38;27.42;;;;;;;8.84;64.29;96040.91;4972883;28;20031;-68
2023/01/02 10:51:01;;;;;;;45.30;26.88;;;;;;;8.75;64.33;96018.09;4969980;28;20129;-70
2023/01/02 10:53:32;;;;;;;42.00;27.63;;;;;;;8.93;63.63;96024.84;4953190;29;20030;-70
2023/01/02 10:56:17;;;;;;;42.75;27.38;;;;;;;9.04;63.59;96037.19;4962179;28;20045;-69
2023/01/02 10:58:48;;;;;;;40.80;26.98;;;;;;;9.12;63.18;96035.81;4973574;28;20133;-68
2023/01/02 11:01:20;;;;;;;39.38;26.27;;;;;;;9.12;62.90;96030.63;4988543;28;20109;-68
2023/01/02 11:04:08;;;;;;;40.28;26.17;;;;;;;9.18;62.67;96029.44;4987671;28;20042;-69
2023/01/02 11:06:34;;;;;;;41.50;26.40;;;;;;;9.23;61.95;96013.63;4967455;28;20089;-69
2023/01/02 11:09:01;;;;;;;36.67;24.80;;;;;;;9.34;62.14;96014.66;4965188;28;20405;-71
2023/01/02 11:11:27;;;;;;;43.78;26.25;;;;;;;9.32;62.09;96008.72;4963975;28;20026;-71
2023/01/02 11:13:56;;;;;;;40.90;24.95;;;;;;;9.49;62.19;96014.69;4949099;28;20190;-73
2023/01/02 11:16:25;;;;;;;36.80;25.48;;;;;;;9.51;61.86;95999.88;4970328;28;20038;-72
2023/01/02 11:18:54;;;;;;;38.42;24.67;;;;;;;9.59;61.84;95998.47;4954313;28;20497;-72
2023/01/02 11:21:31;;;;;;;36.13;25.27;;;;;;;9.65;61.70;95999.88;4986731;28;20031;-72
2023/01/02 11:24:01;;;;;;;37.83;24.40;;;;;;;9.63;61.49;95989.56;4968369;28;20094;-73
2023/01/02 11:26:26;;;;;;;38.85;24.27;;;;;;;9.70;61.62;95991.81;4968107;28;20035;-72
2023/01/02 11:28:52;;;;;;;37.60;26.25;;;;;;;9.84;61.44;95981.41;4961939;28;20041;-72
2023/01/02 11:31:18;;;;;;;34.85;24.52;;;;;;;9.95;61.16;95975.56;4968549;28;20031;-74
2023/01/02 11:33:44;;;;;;;41.72;24.95;;;;;;;9.96;61.17;95975.47;4955657;28;20094;-73
2023/01/02 11:36:09;;;;;;;37.53;25.08;;;;;;;10.04;60.65;95970.63;4986750;28;20027;-73
2023/01/02 11:38:43;;;;;;;42.25;26.52;;;;;;;10.08;60.12;95968.66;4973362;28;20093;-73
2023/01/02 11:44:31;;;;;;;37.08;24.95;;;;;;;10.17;60.15;95957.72;4970696;28;20197;-73